Time;durP1;ratioP1;P1;durP2;ratioP2;P2;SDS_P1;SDS_P2;PMS_P1;PMS_P2;Temp;Humidity;BMP_temperature;BMP_pressure;BME280_temperature;BME280_humidity;BME280_pressure;Samples;Min_cycle;Max_cycle;Signal;HPM_P1;HPM_P2
2024/01/10 00:01:07;;;;;;;38.20;16.97;;;;;;;0.87;45.71;98228.31;5056582;28;20288;-69
2024/01/10 00:03:32;;;;;;;29.13;15.73;;;;;;;1.13;45.56;98221.19;5047624;28;20266;-68
2024/01/10 00:05:58;;;;;;;33.07;17.23;;;;;;;0.94;45.67;98219.38;5047687;28;20195;-69
2024/01/10 00:08:24;;;;;;;26.90;16.67;;;;;;;0.90;45.70;98210.09;5039958;28;20187;-67
2024/01/10 00:10:51;;;;;;;32.23;17.73;;;;;;;0.81;46.24;98215.66;5057337;28;20270;-70
2024/01/10 00:13:16;;;;;;;32.33;16.03;;;;;;;0.90;46.04;98218.69;5050151;28;20488;-68
2024/01/10 00:15:42;;;;;;;27.13;15.63;;;;;;;0.98;45.60;98217.50;5046633;28;20497;-69
2024/01/10 00:18:07;;;;;;;25.53;14.70;;;;;;;0.85;46.06;98227.53;5055148;28;20212;-68
2024/01/10 00:20:33;;;;;;;29.23;16.20;;;;;;;1.05;45.82;98214.59;5032337;28;20243;-68
2024/01/10 00:22:58;;;;;;;31.67;15.97;;;;;;;0.95;46.06;98215.91;5046495;28;20686;-69
2024/01/10 00:25:24;;;;;;;28.87;16.57;;;;;;;0.91;46.10;98222.09;5051295;28;20554;-69
2024/01/10 00:27:49;;;;;;;30.50;16.17;;;;;;;0.97;46.13;98216.69;5041069;28;20266;-68
2024/01/10 00:30:15;;;;;;;26.17;15.47;;;;;;;0.88;45.79;98217.91;5044248;28;20262;-69
2024/01/10 00:32:40;;;;;;;26.60;15.77;;;;;;;0.97;45.50;98213.25;5044584;28;20182;-68
2024/01/10 00:35:06;;;;;;;27.57;15.03;;;;;;;1.03;45.60;98218.16;5047590;28;20282;-69
2024/01/10 00:37:31;;;;;;;26.80;14.73;;;;;;;1.16;45.82;98214.13;5039861;28;20183;-69
2024/01/10 00:39:57;;;;;;;28.10;15.10;;;;;;;1.06;45.94;98210.28;5054012;28;20290;-68
2024/01/10 00:42:22;;;;;;;28.77;15.10;;;;;;;1.04;45.80;98196.59;5040960;28;20179;-69
2024/01/10 00:44:48;;;;;;;30.13;16.17;;;;;;;1.05;45.90;98209.44;5047923;28;20706;-71
2024/01/10 00:47:13;;;;;;;26.47;15.93;;;;;;;1.14;46.12;98204.75;5059221;28;20188;-68
2024/01/10 00:49:38;;;;;;;29.40;15.33;;;;;;;1.11;46.16;98204.91;5050735;28;20211;-69
2024/01/10 00:52:04;;;;;;;25.33;14.83;;;;;;;1.18;45.88;98203.72;5052216;28;20268;-69
2024/01/10 00:54:29;;;;;;;24.93;13.93;;;;;;;1.03;46.44;98195.75;5052603;28;20206;-68
2024/01/10 00:56:55;;;;;;;30.67;15.00;;;;;;;1.17;45.56;98207.19;5064181;28;20183;-69
2024/01/10 00:59:20;;;;;;;26.53;15.03;;;;;;;1.02;46.06;98204.38;5053043;28;20755;-68
2024/01/10 01:01:46;;;;;;;27.57;15.30;;;;;;;0.78;47.07;98206.31;5042985;28;20212;-68
2024/01/10 01:04:11;;;;;;;28.97;16.30;;;;;;;0.84;47.10;98215.53;5046495;28;20203;-70
2024/01/10 01:06:37;;;;;;;28.63;16.57;;;;;;;0.89;46.45;98205.84;5044020;28;20222;-68
2024/01/10 01:09:02;;;;;;;23.97;14.90;;;;;;;1.07;46.09;98204.22;5044922;28;20191;-68
2024/01/10 01:11:27;;;;;;;33.00;16.40;;;;;;;1.04;46.03;98206.91;5046196;28;20189;-69
2024/01/10 01:13:53;;;;;;;34.57;16.10;;;;;;;0.84;46.62;98215.53;5048891;28;20286;-67
2024/01/10 01:16:18;;;;;;;31.13;16.10;;;;;;;0.99;46.43;98203.69;5043373;28;20254;-69
2024/01/10 01:18:45;;;;;;;31.33;16.00;;;;;;;1.03;46.60;98208.66;5052011;28;20206;-69
2024/01/10 01:21:11;;;;;;;29.20;16.37;;;;;;;0.85;46.87;98217.22;5044501;28;20760;-69
2024/01/10 01:23:37;;;;;;;30.00;15.30;;;;;;;0.98;46.35;98208.03;5044374;28;20517;-67
2024/01/10 01:26:03;;;;;;;26.33;15.90;;;;;;;0.87;46.31;98215.41;5051670;28;20296;-69
2024/01/10 01:28:29;;;;;;;36.37;17.20;;;;;;;0.85;46.74;98219.78;5040313;28;20205;-69
2024/01/10 01:30:55;;;;;;;26.60;16.10;;;;;;;0.81;47.19;98216.50;5053088;28;20418;-69
2024/01/10 01:33:20;;;;;;;27.20;15.97;;;;;;;0.79;47.60;98220.03;5046846;28;20760;-69
2024/01/10 01:35:46;;;;;;;25.67;15.80;;;;;;;0.81;46.79;98216.50;5055718;28;20675;-67
2024/01/10 01:38:11;;;;;;;30.30;16.57;;;;;;;1.01;46.03;98210.47;5055862;28;20214;-68
2024/01/10 01:40:37;;;;;;;29.50;15.60;;;;;;;1.03;46.13;98211.22;5048406;28;20262;-69
2024/01/10 01:43:25;;;;;;;27.57;15.17;;;;;;;1.03;45.68;98210.41;5042451;28;20218;-69
2024/01/10 01:45:53;;;;;;;26.17;14.30;;;;;;;1.07;45.32;98210.19;5047818;28;20209;-68
2024/01/10 01:48:19;;;;;;;26.67;14.67;;;;;;;1.09;45.48;98209.28;5045500;28;20532;-68
2024/01/10 01:50:46;;;;;;;26.90;15.70;;;;;;;1.06;45.49;98211.09;5049301;28;20418;-69
2024/01/10 01:53:13;;;;;;;30.53;14.93;;;;;;;1.03;45.89;98216.41;5047677;28;20414;-69
2024/01/10 01:55:39;;;;;;;27.77;15.03;;;;;;;1.07;45.98;98211.97;5048923;28;20414;-69
2024/01/10 01:58:04;;;;;;;35.57;15.70;;;;;;;1.13;45.66;98206.50;5055338;28;20800;-68
2024/01/10 02:00:30;;;;;;;27.23;15.17;;;;;;;1.19;45.85;98205.38;5058161;28;20179;-70
2024/01/10 02:02:57;;;;;;;26.60;15.73;;;;;;;1.38;45.87;98208.84;5055986;28;20174;-68
2024/01/10 02:05:22;;;;;;;26.13;14.43;;;;;;;1.24;45.94;98200.88;5047850;28;20309;-69
2024/01/10 02:07:48;;;;;;;24.23;14.87;;;;;;;1.25;46.01;98209.44;5039544;28;20894;-69
2024/01/10 02:10:13;;;;;;;29.40;15.23;;;;;;;1.33;45.90;98202.16;5048582;28;20266;-69
2024/01/10 02:12:39;;;;;;;30.43;14.37;;;;;;;1.24;46.21;98198.28;5049423;28;20183;-68
2024/01/10 02:15:05;;;;;;;28.47;15.67;;;;;;;1.25;45.98;98205.13;5042431;28;20906;-69
2024/01/10 02:17:30;;;;;;;25.63;14.53;;;;;;;1.16;46.04;98200.34;5042540;28;20589;-68
2024/01/10 02:20:17;;;;;;;23.73;14.70;;;;;;;1.13;45.52;98203.09;5048230;28;20465;-67
2024/01/10 02:22:42;;;;;;;30.40;14.80;;;;;;;1.21;45.70;98198.41;5047793;28;20527;-69
2024/01/10 02:25:09;;;;;;;25.97;13.80;;;;;;;1.41;45.02;98194.94;5049818;28;20511;-69
2024/01/10 02:27:36;;;;;;;28.90;14.40;;;;;;;1.14;45.37;98197.00;5056530;28;20274;-69
2024/01/10 02:30:06;;;;;;;29.10;14.77;;;;;;;1.31;45.51;98198.84;5049970;28;20506;-68
2024/01/10 02:32:32;;;;;;;25.40;13.80;;;;;;;1.22;45.73;98194.94;5045371;28;20414;-69
2024/01/10 02:34:58;;;;;;;28.43;14.33;;;;;;;1.23;45.72;98191.44;5040021;28;20510;-69
2024/01/10 02:37:24;;;;;;;29.07;14.73;;;;;;;1.14;46.05;98195.28;5050478;28;20418;-68
2024/01/10 02:39:49;;;;;;;29.63;14.90;;;;;;;1.29;46.03;98190.31;5051722;28;20203;-69
2024/01/10 02:42:15;;;;;;;27.87;14.00;;;;;;;1.24;45.75;98190.53;5044931;28;20167;-69
2024/01/10 02:44:40;;;;;;;24.57;13.50;;;;;;;1.20;46.16;98183.81;5051684;28;20195;-68
2024/01/10 02:47:06;;;;;;;22.17;13.57;;;;;;;1.18;45.90;98188.22;5048954;28;20260;-67
2024/01/10 02:49:32;;;;;;;22.37;13.30;;;;;;;1.14;46.57;98186.66;5044336;28;20187;-67
2024/01/10 02:51:57;;;;;;;24.53;13.80;;;;;;;1.36;45.96;98192.56;5048631;28;20425;-68
2024/01/10 02:54:23;;;;;;;28.90;14.53;;;;;;;1.40;45.67;98184.66;5051697;28;20274;-69
2024/01/10 02:56:48;;;;;;;24.97;13.83;;;;;;;1.24;45.83;98177.63;5049828;28;20621;-70
2024/01/10 02:59:14;;;;;;;25.90;12.70;;;;;;;1.28;45.88;98173.97;5064150;28;20285;-69
2024/01/10 03:01:39;;;;;;;24.80;14.40;;;;;;;1.36;45.42;98173.63;5034097;28;20183;-68
2024/01/10 03:04:05;;;;;;;27.80;13.70;;;;;;;1.24;45.63;98177.63;5056161;28;20248;-69
2024/01/10 03:06:31;;;;;;;27.63;14.07;;;;;;;1.20;46.08;98179.47;5052126;28;20544;-68
2024/01/10 03:08:56;;;;;;;30.17;14.27;;;;;;;1.29;46.32;98175.66;4999971;28;20187;-68
2024/01/10 03:11:22;;;;;;;25.60;14.40;;;;;;;1.24;46.35;98169.88;5041661;28;20176;-69
2024/01/10 03:13:49;;;;;;;31.70;14.17;;;;;;;1.36;45.82;98173.63;5046544;28;20203;-68
2024/01/10 03:16:15;;;;;;;28.73;14.07;;;;;;;1.36;44.92;98171.88;5045673;28;20210;-68
2024/01/10 03:18:40;;;;;;;22.90;12.87;;;;;;;1.45;44.43;98164.63;5045410;28;20453;-67
2024/01/10 03:21:06;;;;;;;25.17;13.83;;;;;;;1.18;45.28;98162.38;5058425;28;20187;-69
2024/01/10 03:23:31;;;;;;;28.07;13.93;;;;;;;1.28;45.49;98161.06;5049118;28;20295;-68
2024/01/10 03:25:57;;;;;;;23.93;14.10;;;;;;;1.27;45.46;98161.97;5053537;28;20257;-67
2024/01/10 03:28:23;;;;;;;23.90;13.17;;;;;;;1.54;45.05;98161.59;5045322;28;20851;-68
2024/01/10 03:30:48;;;;;;;24.77;13.20;;;;;;;1.62;44.40;98156.91;5050458;28;20768;-69
2024/01/10 03:33:15;;;;;;;26.17;13.73;;;;;;;1.53;43.83;98152.16;5035805;28;20509;-69
2024/01/10 03:35:41;;;;;;;27.50;13.97;;;;;;;1.48;44.04;98154.13;5047591;28;20190;-68
2024/01/10 03:38:06;;;;;;;26.77;13.87;;;;;;;1.48;43.90;98154.97;5052891;28;20425;-69
2024/01/10 03:40:32;;;;;;;24.80;14.03;;;;;;;1.48;44.28;98159.31;5050146;28;20449;-67
2024/01/10 03:42:58;;;;;;;33.47;13.87;;;;;;;1.50;44.85;98158.31;5049054;28;20726;-68
2024/01/10 03:45:23;;;;;;;26.60;12.77;;;;;;;1.60;44.43;98148.41;5052301;28;20324;-70
2024/01/10 03:47:51;;;;;;;23.20;13.43;;;;;;;1.60;44.00;98157.88;5061821;28;20791;-69
2024/01/10 03:50:19;;;;;;;30.97;14.77;;;;;;;1.54;43.56;98156.41;5051691;28;20207;-70
2024/01/10 03:52:44;;;;;;;25.60;13.33;;;;;;;1.61;42.87;98160.41;5051674;28;20426;-68
2024/01/10 03:55:10;;;;;;;25.00;13.60;;;;;;;1.45;42.65;98164.63;5048570;28;20823;-68
2024/01/10 03:57:36;;;;;;;25.30;13.47;;;;;;;1.48;42.45;98157.53;5046629;28;20190;-68
2024/01/10 04:00:01;;;;;;;22.93;12.40;;;;;;;1.47;43.03;98158.44;5058327;28;20460;-68
2024/01/10 04:02:27;;;;;;;26.20;13.30;;;;;;;1.29;43.77;98165.31;5053481;28;20182;-70
2024/01/10 04:04:53;;;;;;;27.33;13.47;;;;;;;1.49;43.58;98161.00;5040652;28;20207;-68
2024/01/10 04:07:19;;;;;;;23.93;12.60;;;;;;;1.61;42.45;98164.72;5043543;28;20418;-69
2024/01/10 04:09:44;;;;;;;21.20;12.77;;;;;;;1.76;40.99;98163.19;5055738;28;20213;-69
2024/01/10 04:12:10;;;;;;;27.93;14.77;;;;;;;1.66;40.79;98163.59;5048092;28;20183;-68
2024/01/10 04:14:35;;;;;;;23.70;13.47;;;;;;;1.80;40.32;98162.94;5054670;28;20300;-68
2024/01/10 04:17:01;;;;;;;24.03;13.77;;;;;;;1.60;40.82;98166.47;5059379;28;20284;-69
2024/01/10 04:19:27;;;;;;;27.33;12.70;;;;;;;1.36;40.41;98171.88;5047374;28;20198;-68
2024/01/10 04:21:52;;;;;;;27.23;13.73;;;;;;;1.43;40.95;98172.44;5051684;28;20187;-67
2024/01/10 04:24:17;;;;;;;26.50;13.30;;;;;;;1.27;41.63;98177.47;5042202;28;20211;-68
2024/01/10 04:26:43;;;;;;;23.57;13.77;;;;;;;1.37;42.05;98177.88;5042898;28;20355;-68
2024/01/10 04:29:08;;;;;;;23.40;13.70;;;;;;;1.44;41.23;98175.84;5040446;28;20181;-69
2024/01/10 04:31:35;;;;;;;26.03;14.47;;;;;;;1.22;41.32;98175.09;5041976;28;20257;-69
2024/01/10 04:34:01;;;;;;;25.30;13.93;;;;;;;1.33;41.13;98177.19;5052312;28;20210;-68
2024/01/10 04:36:26;;;;;;;26.23;13.87;;;;;;;1.50;41.25;98163.47;5044521;28;20438;-67
2024/01/10 04:38:52;;;;;;;27.20;14.07;;;;;;;1.61;41.01;98165.56;5043585;28;20519;-68
2024/01/10 04:41:17;;;;;;;28.50;14.70;;;;;;;1.61;41.36;98164.72;5039293;28;20188;-69
2024/01/10 04:43:43;;;;;;;28.37;15.20;;;;;;;1.56;41.03;98161.53;5036076;28;20210;-69
2024/01/10 04:46:10;;;;;;;27.17;14.07;;;;;;;1.52;41.44;98172.00;5042578;28;20179;-69
2024/01/10 04:48:36;;;;;;;23.50;13.93;;;;;;;1.56;41.33;98162.38;5055408;28;20176;-69
2024/01/10 04:51:01;;;;;;;24.33;14.47;;;;;;;1.56;41.62;98156.38;5045153;28;20428;-69
2024/01/10 04:53:27;;;;;;;27.17;14.70;;;;;;;1.45;41.34;98154.28;5038158;28;20434;-69
2024/01/10 04:55:52;;;;;;;27.77;14.47;;;;;;;1.38;41.51;98158.91;5043570;28;20187;-69
2024/01/10 04:58:18;;;;;;;29.97;15.67;;;;;;;1.57;41.26;98156.28;5036560;28;20226;-69
2024/01/10 05:00:43;;;;;;;27.87;15.67;;;;;;;1.72;41.00;98161.63;5058075;28;20660;-69
2024/01/10 05:03:08;;;;;;;25.90;13.90;;;;;;;1.61;40.98;98163.00;5056205;28;20265;-68
2024/01/10 05:05:34;;;;;;;28.03;16.00;;;;;;;1.71;40.70;98157.38;5047747;28;20215;-68
2024/01/10 05:08:01;;;;;;;32.03;15.20;;;;;;;1.56;41.64;98162.38;5050165;28;20273;-69
2024/01/10 05:10:26;;;;;;;29.43;16.10;;;;;;;1.35;40.94;98170.22;5056761;28;20248;-70
2024/01/10 05:12:52;;;;;;;24.13;14.07;;;;;;;1.42;40.58;98168.19;5052032;28;20420;-68
2024/01/10 05:15:17;;;;;;;26.83;15.73;;;;;;;1.42;41.13;98169.91;5057000;28;20782;-69
2024/01/10 05:17:43;;;;;;;32.77;14.70;;;;;;;1.23;41.25;98170.78;5050657;28;20210;-69
2024/01/10 05:20:09;;;;;;;26.67;15.30;;;;;;;1.28;41.39;98173.16;5053293;28;20210;-69
2024/01/10 05:22:35;;;;;;;28.37;14.67;;;;;;;0.98;41.64;98177.06;5042431;28;20186;-69
2024/01/10 05:25:00;;;;;;;35.80;19.40;;;;;;;1.07;41.75;98175.81;5052602;28;20456;-67
2024/01/10 05:27:26;;;;;;;52.47;25.80;;;;;;;1.11;41.88;98171.34;5049288;28;20428;-68
2024/01/10 05:29:59;;;;;;;38.10;20.63;;;;;;;1.06;41.74;98169.78;5046267;28;20652;-70
2024/01/10 05:32:26;;;;;;;47.93;23.33;;;;;;;1.06;42.22;98169.78;5055002;28;20425;-69
2024/01/10 05:34:51;;;;;;;30.43;17.20;;;;;;;1.15;42.04;98172.84;5055494;28;21046;-69
2024/01/10 05:37:17;;;;;;;27.67;17.67;;;;;;;1.10;42.04;98174.81;5051954;28;20523;-68
2024/01/10 05:39:42;;;;;;;31.50;16.77;;;;;;;1.10;42.48;98177.41;5046730;28;20292;-67
2024/01/10 05:42:08;;;;;;;32.77;15.50;;;;;;;1.15;42.23;98178.00;5030628;28;20226;-69
2024/01/10 05:44:33;;;;;;;66.87;31.53;;;;;;;1.28;42.03;98173.97;5046439;28;20202;-68
2024/01/10 05:46:59;;;;;;;56.60;27.43;;;;;;;1.46;41.87;98167.13;5056985;28;20195;-69
2024/01/10 05:49:25;;;;;;;50.27;24.17;;;;;;;1.48;41.70;98169.66;5058522;28;20178;-68
2024/01/10 05:51:51;;;;;;;62.10;30.80;;;;;;;1.52;41.93;98176.31;5054890;28;20182;-69
2024/01/10 05:54:18;;;;;;;47.17;25.00;;;;;;;1.47;42.44;98173.13;5047234;28;20461;-67
2024/01/10 05:56:43;;;;;;;43.30;20.47;;;;;;;1.54;42.02;98179.69;5063974;28;20214;-70
2024/01/10 05:59:11;;;;;;;42.33;18.83;;;;;;;1.60;42.49;98178.56;5064026;28;20842;-69
2024/01/10 06:01:38;;;;;;;37.23;19.87;;;;;;;1.56;41.98;98179.63;5043643;28;20189;-68
2024/01/10 06:04:04;;;;;;;36.23;18.23;;;;;;;1.66;41.58;98180.88;5056237;28;20453;-68
2024/01/10 06:06:30;;;;;;;38.70;20.00;;;;;;;1.60;41.71;98176.81;5049734;28;20513;-70
2024/01/10 06:08:55;;;;;;;37.60;19.33;;;;;;;1.49;41.92;98176.50;5052199;28;20560;-69
2024/01/10 06:11:21;;;;;;;34.33;18.40;;;;;;;1.49;41.94;98181.66;5060568;28;20273;-68
2024/01/10 06:13:46;;;;;;;27.90;15.90;;;;;;;1.33;42.58;98168.59;5047550;28;20668;-69
2024/01/10 06:16:13;;;;;;;31.70;17.40;;;;;;;1.40;42.71;98169.13;5058393;28;20217;-67
2024/01/10 06:18:38;;;;;;;32.40;18.00;;;;;;;1.27;43.02;98164.53;5050717;28;20210;-68
2024/01/10 06:21:04;;;;;;;36.80;20.13;;;;;;;1.44;43.58;98165.53;5051510;28;20460;-69
2024/01/10 06:23:29;;;;;;;33.37;19.80;;;;;;;1.37;43.22;98163.25;5043544;28;20207;-70
2024/01/10 06:25:58;;;;;;;35.43;20.70;;;;;;;1.33;42.85;98177.19;5029281;28;20186;-68
2024/01/10 06:28:23;;;;;;;29.10;15.83;;;;;;;1.04;44.07;98184.50;5049378;28;20421;-69
2024/01/10 06:30:49;;;;;;;31.80;16.10;;;;;;;1.01;44.20;98183.81;5057854;28;20208;-69
2024/01/10 06:33:15;;;;;;;30.03;15.90;;;;;;;0.98;44.67;98182.22;5053715;28;20179;-69
2024/01/10 06:35:43;;;;;;;37.13;17.60;;;;;;;0.82;44.89;98179.44;5059464;28;20658;-66
2024/01/10 06:38:09;;;;;;;29.97;16.37;;;;;;;0.95;44.63;98181.50;5051228;28;20183;-68
2024/01/10 06:40:35;;;;;;;29.07;16.70;;;;;;;1.02;43.96;98188.06;5050723;28;20821;-68
2024/01/10 06:43:00;;;;;;;33.20;17.20;;;;;;;1.06;44.30;98199.94;5021133;28;20437;-66
2024/01/10 06:45:26;;;;;;;30.57;17.10;;;;;;;0.95;44.71;98197.84;5052326;28;20215;-69
2024/01/10 06:47:52;;;;;;;31.27;16.23;;;;;;;1.12;44.64;98193.69;5055636;28;20194;-69
2024/01/10 06:50:19;;;;;;;34.20;17.10;;;;;;;1.23;44.52;98197.44;5056519;28;20417;-68
2024/01/10 06:52:44;;;;;;;32.40;17.57;;;;;;;1.29;44.17;98190.31;5050984;28;20179;-71
2024/01/10 06:55:10;;;;;;;33.07;17.00;;;;;;;1.25;43.99;98194.81;5050355;28;20967;-69
2024/01/10 06:57:35;;;;;;;36.97;17.30;;;;;;;1.16;44.22;98193.47;5041108;28;20183;-69
2024/01/10 07:00:03;;;;;;;33.80;18.27;;;;;;;1.14;44.41;98191.84;5055458;28;20207;-69
2024/01/10 07:02:28;;;;;;;29.17;17.77;;;;;;;0.95;44.46;98187.50;5048853;28;20183;-69
2024/01/10 07:04:54;;;;;;;32.90;17.77;;;;;;;1.09;44.04;98193.81;5049392;28;20489;-68
2024/01/10 07:07:19;;;;;;;25.73;14.80;;;;;;;1.12;43.85;98201.41;5047551;28;20203;-70
2024/01/10 07:09:45;;;;;;;29.57;17.20;;;;;;;0.95;44.45;98195.25;5041787;28;20182;-68
2024/01/10 07:12:10;;;;;;;28.73;15.80;;;;;;;0.91;44.38;98198.88;5048028;28;20175;-68
2024/01/10 07:14:36;;;;;;;28.60;16.10;;;;;;;0.82;44.90;98217.34;5041857;28;20294;-68
2024/01/10 07:17:01;;;;;;;32.73;15.60;;;;;;;0.82;45.35;98213.00;5035782;28;20202;-68
2024/01/10 07:19:27;;;;;;;33.43;17.13;;;;;;;0.86;45.01;98203.41;5031859;28;20283;-68
2024/01/10 07:21:54;;;;;;;36.70;18.47;;;;;;;0.77;45.52;98210.63;5038794;28;20275;-68
2024/01/10 07:24:19;;;;;;;33.50;18.00;;;;;;;0.66;45.53;98215.41;5039816;28;20214;-67
2024/01/10 07:26:44;;;;;;;34.83;17.97;;;;;;;0.59;46.03;98217.41;5041877;28;20421;-69
2024/01/10 07:29:10;;;;;;;30.73;16.20;;;;;;;0.66;46.02;98214.59;5053453;28;20515;-69
2024/01/10 07:31:35;;;;;;;31.67;18.77;;;;;;;0.58;46.01;98220.06;5050903;28;20187;-68
2024/01/10 07:34:01;;;;;;;33.20;18.27;;;;;;;0.52;46.20;98215.16;5049949;28;20271;-69
2024/01/10 07:36:27;;;;;;;32.20;17.60;;;;;;;0.51;46.14;98213.47;5047629;28;20182;-69
2024/01/10 07:38:53;;;;;;;38.97;19.57;;;;;;;0.52;46.39;98220.31;5060088;28;20475;-69
2024/01/10 07:41:18;;;;;;;36.87;18.93;;;;;;;0.51;46.36;98232.38;5058630;28;20574;-68
2024/01/10 07:43:44;;;;;;;43.70;19.60;;;;;;;0.39;46.72;98232.91;5037414;28;20441;-69
2024/01/10 07:46:09;;;;;;;30.87;18.60;;;;;;;0.49;46.54;98234.19;5052880;28;20213;-68
2024/01/10 07:48:35;;;;;;;39.80;19.13;;;;;;;0.49;47.07;98228.19;5053669;28;20171;-68
2024/01/10 07:51:01;;;;;;;32.00;18.90;;;;;;;0.44;47.30;98238.72;5054955;28;20647;-68
2024/01/10 07:53:26;;;;;;;38.20;18.77;;;;;;;0.38;47.17;98234.63;5043867;28;20486;-69
2024/01/10 07:55:52;;;;;;;34.20;17.53;;;;;;;0.51;47.16;98240.13;5038676;28;20191;-70
2024/01/10 07:58:18;;;;;;;40.03;17.63;;;;;;;0.62;46.98;98242.28;5049972;28;20202;-69
2024/01/10 08:00:44;;;;;;;39.33;19.67;;;;;;;0.55;47.03;98246.00;5057957;28;20756;-69
2024/01/10 08:03:10;;;;;;;52.33;24.30;;;;;;;0.48;47.25;98248.00;5036193;28;20194;-71
2024/01/10 08:05:35;;;;;;;44.93;22.93;;;;;;;0.57;47.04;98244.19;5030662;28;20431;-71
2024/01/10 08:08:01;;;;;;;50.10;23.87;;;;;;;0.63;47.16;98243.91;5033905;28;20729;-71
2024/01/10 08:10:27;;;;;;;46.85;25.17;;;;;;;0.81;46.94;98251.81;5042250;28;20843;-69
2024/01/10 08:12:52;;;;;;;40.90;19.87;;;;;;;0.94;46.73;98245.22;5049591;28;20186;-69
2024/01/10 08:15:19;;;;;;;41.13;19.53;;;;;;;1.17;46.08;98240.78;5032511;28;20452;-68
2024/01/10 08:17:45;;;;;;;35.27;20.60;;;;;;;1.47;45.60;98245.47;5048452;28;20617;-69
2024/01/10 08:20:10;;;;;;;39.70;21.10;;;;;;;1.77;44.70;98250.13;5031901;28;20458;-69
2024/01/10 08:22:37;;;;;;;39.07;18.77;;;;;;;2.04;43.82;98242.84;5036682;28;20176;-68
2024/01/10 08:25:03;;;;;;;41.90;20.57;;;;;;;2.37;42.99;98247.28;5042552;28;20239;-68
2024/01/10 08:27:28;;;;;;;41.00;19.70;;;;;;;2.76;42.93;98243.63;5055890;28;20449;-68
2024/01/10 08:29:53;;;;;;;37.40;21.80;;;;;;;3.07;42.11;98246.41;5049570;28;20298;-69
2024/01/10 08:32:21;;;;;;;44.00;21.67;;;;;;;3.34;41.97;98249.28;5044162;28;20609;-69
2024/01/10 08:34:48;;;;;;;32.17;19.70;;;;;;;3.68;40.97;98257.88;5044907;28;20206;-68
2024/01/10 08:37:14;;;;;;;33.37;20.17;;;;;;;4.22;40.44;98264.41;5042138;28;20937;-68
2024/01/10 08:39:39;;;;;;;41.50;20.33;;;;;;;4.45;39.37;98262.31;5043624;28;20446;-69
2024/01/10 08:42:04;;;;;;;40.50;20.37;;;;;;;4.80;39.24;98253.38;5049814;28;20183;-68
2024/01/10 08:44:30;;;;;;;33.90;21.57;;;;;;;5.09;38.59;98256.88;5044323;28;20633;-69
2024/01/10 08:46:55;;;;;;;33.30;19.83;;;;;;;5.42;37.09;98257.50;5047882;28;20222;-68
2024/01/10 08:49:21;;;;;;;32.73;18.90;;;;;;;5.71;35.90;98253.09;5051049;28;20214;-69
2024/01/10 08:51:46;;;;;;;40.63;20.10;;;;;;;5.75;35.56;98254.56;5055173;28;20553;-72
2024/01/10 08:54:16;;;;;;;36.67;20.33;;;;;;;5.54;36.17;98257.59;5043020;28;20207;-68
2024/01/10 08:56:44;;;;;;;33.30;20.13;;;;;;;5.49;36.14;98253.59;5030499;28;20290;-69
2024/01/10 08:59:11;;;;;;;34.83;19.93;;;;;;;5.89;35.64;98264.13;5040681;28;20540;-69
2024/01/10 09:01:38;;;;;;;38.93;23.93;;;;;;;5.97;35.21;98264.47;5015946;28;20453;-67
2024/01/10 09:04:04;;;;;;;34.57;19.63;;;;;;;6.11;34.76;98260.19;5028421;28;20452;-69
2024/01/10 09:06:31;;;;;;;38.73;21.93;;;;;;;6.18;34.01;98266.66;5036598;28;20839;-70
2024/01/10 09:08:57;;;;;;;38.63;21.63;;;;;;;6.25;33.34;98269.69;5037469;28;20443;-69
2024/01/10 09:11:22;;;;;;;31.07;19.33;;;;;;;6.22;33.83;98268.13;5039847;28;20450;-70
2024/01/10 09:13:49;;;;;;;40.03;22.40;;;;;;;6.25;33.42;98262.72;5051015;28;20199;-70
2024/01/10 09:16:14;;;;;;;41.33;20.23;;;;;;;6.34;33.47;98271.72;5039467;28;20203;-70
2024/01/10 09:18:40;;;;;;;38.43;20.20;;;;;;;6.61;33.29;98266.47;5055296;28;20491;-70
2024/01/10 09:21:06;;;;;;;28.60;18.90;;;;;;;6.68;32.97;98269.50;5034760;28;20181;-71
2024/01/10 09:23:31;;;;;;;35.53;21.13;;;;;;;6.64;32.94;98275.84;5050607;28;20417;-70
2024/01/10 09:25:57;;;;;;;36.77;21.30;;;;;;;6.66;32.72;98275.75;5055763;28;20274;-69
2024/01/10 09:28:23;;;;;;;36.97;21.33;;;;;;;6.67;32.96;98273.03;5040711;28;20183;-70
2024/01/10 09:30:48;;;;;;;34.33;21.63;;;;;;;6.70;33.19;98277.22;5056402;28;20179;-71
2024/01/10 09:33:14;;;;;;;34.37;21.27;;;;;;;6.96;32.54;98279.84;5050546;28;20175;-67
2024/01/10 09:35:39;;;;;;;37.20;21.70;;;;;;;7.13;32.32;98276.94;5038097;28;20184;-69
2024/01/10 09:38:05;;;;;;;37.20;21.97;;;;;;;7.02;31.54;98282.06;5050081;28;20228;-68
2024/01/10 09:40:31;;;;;;;35.03;20.60;;;;;;;6.89;31.91;98272.47;5056052;28;20308;-69
2024/01/10 09:42:56;;;;;;;38.80;22.07;;;;;;;6.82;32.58;98281.59;5045263;28;20189;-69
2024/01/10 09:45:23;;;;;;;44.30;22.70;;;;;;;7.01;32.66;98280.38;5047609;28;20202;-68
2024/01/10 09:47:52;;;;;;;46.27;21.27;;;;;;;6.87;32.10;98284.75;5048996;28;20262;-69
2024/01/10 09:50:17;;;;;;;40.30;22.90;;;;;;;6.72;32.56;98280.56;5047545;28;20771;-69
2024/01/10 09:52:53;;;;;;;39.90;22.70;;;;;;;6.80;33.51;98282.66;5047874;28;20429;-69
2024/01/10 09:55:23;;;;;;;40.33;22.53;;;;;;;7.05;33.11;98287.91;5037523;28;20204;-69
2024/01/10 09:57:49;;;;;;;39.97;22.03;;;;;;;7.52;32.17;98276.91;5044381;28;20426;-70
2024/01/10 10:00:15;;;;;;;41.80;23.97;;;;;;;7.69;32.52;98278.34;5050966;28;20540;-69
2024/01/10 10:02:41;;;;;;;39.63;24.70;;;;;;;7.82;31.84;98273.09;5053292;28;20504;-69
2024/01/10 10:05:15;;;;;;;57.60;32.80;;;;;;;7.86;31.80;98271.09;5038982;28;20956;-70
2024/01/10 10:07:47;;;;;;;38.33;23.73;;;;;;;8.12;30.85;98272.69;5054666;28;20492;-69
2024/01/10 10:10:14;;;;;;;40.03;24.03;;;;;;;8.25;31.07;98274.41;5043036;28;20964;-68
2024/01/10 10:12:46;;;;;;;35.00;22.40;;;;;;;8.14;31.08;98265.56;5047497;28;20432;-69
2024/01/10 10:15:13;;;;;;;38.67;23.40;;;;;;;8.56;30.71;98272.22;5044800;28;20807;-69
2024/01/10 10:17:45;;;;;;;39.33;23.43;;;;;;;8.55;30.95;98265.31;5047378;28;20434;-69
2024/01/10 10:20:21;;;;;;;42.93;25.10;;;;;;;8.74;30.57;98262.97;5044455;28;21050;-69
2024/01/10 10:23:03;;;;;;;39.20;24.17;;;;;;;8.83;30.68;98263.22;5032586;28;20453;-69
2024/01/10 10:25:35;;;;;;;37.17;22.97;;;;;;;9.11;29.95;98269.84;5054664;28;20452;-70
2024/01/10 10:28:02;;;;;;;37.70;24.00;;;;;;;9.11;29.63;98263.75;5035213;28;20508;-69
2024/01/10 10:30:32;;;;;;;39.33;24.67;;;;;;;8.90;30.04;98262.66;5049027;28;20417;-68
2024/01/10 10:32:58;;;;;;;40.50;24.10;;;;;;;9.20;30.34;98263.91;5055686;28;20437;-69
2024/01/10 10:35:23;;;;;;;40.50;23.57;;;;;;;9.33;30.06;98253.31;5054339;28;20448;-69
2024/01/10 10:37:50;;;;;;;38.97;22.60;;;;;;;9.54;30.02;98247.38;5047968;28;20171;-69
2024/01/10 10:40:15;;;;;;;44.30;24.40;;;;;;;9.50;29.86;98259.88;5053017;28;20219;-69
2024/01/10 10:42:45;;;;;;;35.67;20.47;;;;;;;9.61;29.38;98250.34;5039295;28;20863;-70
2024/01/10 10:45:16;;;;;;;39.33;24.00;;;;;;;9.56;29.53;98250.72;5054666;28;20203;-69
2024/01/10 10:47:45;;;;;;;36.07;23.00;;;;;;;9.82;29.51;98253.88;5041250;28;20947;-68
2024/01/10 10:50:20;;;;;;;35.83;23.10;;;;;;;9.92;28.93;98258.38;5047401;28;20417;-68
2024/01/10 10:52:46;;;;;;;41.03;25.90;;;;;;;10.08;29.21;98252.75;5043230;28;20411;-69
2024/01/10 10:55:16;;;;;;;36.60;22.77;;;;;;;10.11;28.99;98250.72;5040852;28;20996;-68
2024/01/10 10:57:43;;;;;;;33.20;22.77;;;;;;;10.08;28.98;98252.75;5049516;28;20510;-69
2024/01/10 11:00:10;;;;;;;36.10;22.33;;;;;;;9.96;29.01;98247.53;5055478;28;20452;-71
2024/01/10 11:02:37;;;;;;;36.37;23.07;;;;;;;9.97;29.42;98256.22;5047140;28;20428;-69
2024/01/10 11:05:03;;;;;;;38.93;22.37;;;;;;;9.94;29.06;98257.31;5048526;28;20437;-69
2024/01/10 11:07:29;;;;;;;36.77;22.70;;;;;;;9.85;29.08;98247.56;5049870;28;20422;-70
2024/01/10 11:09:55;;;;;;;36.30;22.97;;;;;;;9.67;29.48;98255.94;5043320;28;20518;-69
2024/01/10 11:12:48;;;;;;;40.40;23.40;;;;;;;9.66;29.60;98256.03;5042541;28;20206;-69
2024/01/10 11:15:41;;;;;;;42.03;23.63;;;;;;;9.79;29.52;98246.25;5048441;28;20433;-69
2024/01/10 11:18:27;;;;;;;35.40;22.53;;;;;;;9.98;29.36;98248.25;5049109;28;20911;-69
2024/01/10 11:21:16;;;;;;;37.40;23.10;;;;;;;10.13;29.05;98245.34;5050947;28;21044;-68